createdAt,value
2023-04-12T00:00:10.373Z,7.33
2023-04-12T00:02:38.961Z,3.33
2023-04-12T00:05:09.697Z,4.67
2023-04-12T00:07:38.374Z,3.67
2023-04-12T00:10:07.972Z,3.53
2023-04-12T00:12:35.645Z,4.30
2023-04-12T00:15:03.308Z,3.13
2023-04-12T00:17:32.463Z,6.57
2023-04-12T00:20:00.214Z,7.10
2023-04-12T00:22:28.477Z,4.97
2023-04-12T00:24:56.046Z,3.53
2023-04-12T00:27:23.801Z,4.60
2023-04-12T00:29:51.377Z,5.03
2023-04-12T00:32:19.003Z,5.30
2023-04-12T00:34:48.122Z,3.50
2023-04-12T00:37:15.789Z,5.37
2023-04-12T00:39:43.361Z,4.63
2023-04-12T00:42:10.935Z,5.37
2023-04-12T00:44:38.539Z,5.93
2023-04-12T00:47:06.900Z,3.80
2023-04-12T00:49:35.105Z,4.93
2023-04-12T00:52:06.248Z,6.40
2023-04-12T00:54:34.715Z,7.30
2023-04-12T00:57:02.790Z,6.00
2023-04-12T00:59:30.935Z,3.13
2023-04-12T01:01:58.779Z,6.13
2023-04-12T01:04:27.231Z,3.63
2023-04-12T01:07:06.518Z,4.67
2023-04-12T01:09:39.425Z,3.27
2023-04-12T01:12:10.145Z,4.90
2023-04-12T01:14:44.741Z,2.77
2023-04-12T01:17:17.216Z,6.63
2023-04-12T01:19:57.723Z,4.77
2023-04-12T01:22:39.406Z,4.07
2023-04-12T01:25:24.148Z,7.93
2023-04-12T01:27:55.761Z,3.67
2023-04-12T01:30:24.376Z,4.47
2023-04-12T01:32:52.715Z,5.17
2023-04-12T01:35:21.925Z,4.43
2023-04-12T01:37:49.633Z,4.13
2023-04-12T01:40:19.250Z,6.80
2023-04-12T01:42:46.941Z,9.00
2023-04-12T01:45:16.051Z,3.20
2023-04-12T01:47:43.702Z,5.63
2023-04-12T01:50:17.748Z,6.80
2023-04-12T01:52:50.879Z,4.67
2023-04-12T01:55:20.641Z,2.97
2023-04-12T01:57:49.198Z,4.73
2023-04-12T02:00:19.417Z,4.20
2023-04-12T02:02:47.251Z,7.10
2023-04-12T02:05:15.193Z,5.77
2023-04-12T02:07:42.992Z,8.07
2023-04-12T02:10:14.545Z,3.47
2023-04-12T02:12:42.150Z,4.27
2023-04-12T02:15:10.274Z,3.30
2023-04-12T02:17:40.861Z,5.60
2023-04-12T02:20:11.826Z,8.03
2023-04-12T02:22:39.465Z,3.90
2023-04-12T02:25:07.790Z,4.27
2023-04-12T02:27:35.391Z,5.33
2023-04-12T02:30:05.065Z,5.73
2023-04-12T02:32:32.839Z,4.00
2023-04-12T02:35:02.776Z,7.30
2023-04-12T02:37:30.443Z,4.13
2023-04-12T02:39:58.953Z,3.70
2023-04-12T02:42:26.538Z,4.90
2023-04-12T02:44:54.081Z,5.43
2023-04-12T02:47:21.654Z,5.07
2023-04-12T02:49:49.278Z,5.77
2023-04-12T02:52:18.622Z,2.73
2023-04-12T02:54:46.239Z,4.13
2023-04-12T02:57:13.879Z,5.60
2023-04-12T02:59:41.487Z,2.90
2023-04-12T03:02:09.241Z,4.07
2023-04-12T03:04:39.853Z,5.33
2023-04-12T03:07:07.772Z,2.93
2023-04-12T03:09:38.549Z,3.90
2023-04-12T03:12:06.824Z,5.20
2023-04-12T03:14:34.497Z,4.73
2023-04-12T03:17:02.104Z,3.20
2023-04-12T03:19:32.866Z,2.17
2023-04-12T03:22:00.508Z,3.43
2023-04-12T03:24:28.689Z,4.70
2023-04-12T03:26:58.137Z,3.03
2023-04-12T03:29:25.769Z,5.93
2023-04-12T03:31:53.363Z,5.37
2023-04-12T03:34:20.938Z,6.60
2023-04-12T03:36:48.563Z,3.97
2023-04-12T03:39:16.324Z,4.90
2023-04-12T03:41:44.033Z,4.03
2023-04-12T03:44:13.042Z,6.20
2023-04-12T03:46:40.790Z,2.73
2023-04-12T03:49:08.481Z,6.30
2023-04-12T03:51:36.304Z,4.47
2023-04-12T03:54:04.407Z,4.03
2023-04-12T03:56:32.216Z,6.83
2023-04-12T03:58:59.861Z,6.73
2023-04-12T04:01:29.055Z,6.33
2023-04-12T04:03:57.362Z,5.07
2023-04-12T04:06:25.638Z,5.23
2023-04-12T04:08:53.304Z,4.50
2023-04-12T04:11:20.885Z,4.43
2023-04-12T04:13:48.483Z,6.77
2023-04-12T04:16:16.224Z,3.47
2023-04-12T04:18:45.607Z,5.40
2023-04-12T04:21:14.239Z,7.27
2023-04-12T04:23:44.872Z,2.90
2023-04-12T04:26:13.889Z,4.43
2023-04-12T04:28:45.101Z,5.07
2023-04-12T04:31:13.379Z,4.40
2023-04-12T04:33:41.817Z,6.00
2023-04-12T04:36:12.626Z,7.67
2023-04-12T04:38:40.544Z,3.83
2023-04-12T04:41:10.325Z,5.07
2023-04-12T04:43:39.914Z,3.27
2023-04-12T04:46:08.066Z,4.43
2023-04-12T04:48:36.412Z,3.93
2023-04-12T04:51:04.042Z,5.70
2023-04-12T04:53:33.151Z,4.80
2023-04-12T04:56:01.336Z,5.73
2023-04-12T04:58:29.121Z,4.53
2023-04-12T05:00:58.244Z,5.60
2023-04-12T05:03:30.293Z,8.17
2023-04-12T05:05:58.496Z,8.70
2023-04-12T05:08:26.510Z,5.57
2023-04-12T05:10:56.454Z,6.57
2023-04-12T05:13:24.214Z,5.77
2023-04-12T05:15:51.903Z,7.13
2023-04-12T05:18:19.502Z,6.93
2023-04-12T05:20:48.336Z,6.50
2023-04-12T05:23:17.382Z,8.07
2023-04-12T05:25:48.298Z,5.10
2023-04-12T05:28:17.985Z,5.40
2023-04-12T05:30:46.217Z,5.97
2023-04-12T05:33:14.439Z,4.53
2023-04-12T05:35:42.232Z,4.43
2023-04-12T05:38:10.093Z,4.00
2023-04-12T05:40:38.640Z,6.77
2023-04-12T05:43:06.490Z,5.87
2023-04-12T05:45:35.464Z,5.40
2023-04-12T05:48:03.253Z,4.37
2023-04-12T05:50:30.961Z,5.20
2023-04-12T05:52:58.898Z,3.23
2023-04-12T05:55:26.758Z,4.30
2023-04-12T05:57:54.433Z,3.67
2023-04-12T06:00:23.429Z,3.13
2023-04-12T06:02:52.780Z,4.83
2023-04-12T06:05:20.934Z,3.70
2023-04-12T06:07:48.919Z,4.90
2023-04-12T06:10:17.945Z,4.63
2023-04-12T06:12:46.210Z,3.97
2023-04-12T06:15:13.910Z,4.63
2023-04-12T06:17:41.598Z,3.40
2023-04-12T06:20:12.405Z,3.30
2023-04-12T06:22:40.062Z,5.17
2023-04-12T06:25:09.223Z,3.23
2023-04-12T06:27:37.121Z,3.63
2023-04-12T06:30:05.332Z,5.07
2023-04-12T06:32:33.063Z,3.60
2023-04-12T06:35:01.119Z,4.57
2023-04-12T06:37:30.276Z,3.50
2023-04-12T06:39:57.882Z,4.03
2023-04-12T06:42:25.563Z,3.80
2023-04-12T06:44:53.303Z,3.37
2023-04-12T06:47:22.843Z,6.43
2023-04-12T06:49:53.241Z,3.57
2023-04-12T06:52:25.141Z,4.13
2023-04-12T06:54:54.298Z,4.13
2023-04-12T06:57:21.972Z,4.43
2023-04-12T06:59:49.605Z,2.50
2023-04-12T07:02:17.467Z,3.73
2023-04-12T07:04:45.371Z,3.80
2023-04-12T07:07:13.433Z,3.97
2023-04-12T07:09:41.262Z,3.13
2023-04-12T07:12:10.339Z,3.93
2023-04-12T07:14:38.107Z,4.50
2023-04-12T07:17:05.782Z,4.33
2023-04-12T07:19:33.634Z,6.43
2023-04-12T07:22:01.396Z,5.40
2023-04-12T07:24:29.087Z,4.87
2023-04-12T07:26:56.697Z,3.50
2023-04-12T07:29:26.078Z,3.37
2023-04-12T07:31:53.699Z,4.20
2023-04-12T07:34:21.605Z,3.10
2023-04-12T07:36:49.470Z,2.93
2023-04-12T07:39:17.262Z,6.70
2023-04-12T07:41:46.435Z,2.73
2023-04-12T07:44:16.011Z,3.27
2023-04-12T07:46:46.207Z,4.03
2023-04-12T07:49:14.046Z,3.37
2023-04-12T07:51:42.398Z,3.73
2023-04-12T07:54:10.311Z,2.97
2023-04-12T07:56:38.044Z,2.63
2023-04-12T07:59:06.011Z,3.60
2023-04-12T08:01:33.874Z,4.80
2023-04-12T08:04:03.306Z,5.50
2023-04-12T08:06:33.699Z,3.60
2023-04-12T08:09:01.997Z,3.30
2023-04-12T08:11:29.700Z,3.07
2023-04-12T08:13:57.754Z,2.97
2023-04-12T08:16:25.904Z,4.50
2023-04-12T08:18:53.753Z,3.53
2023-04-12T08:21:22.830Z,2.33
2023-04-12T08:23:50.853Z,2.87
2023-04-12T08:26:18.477Z,4.07
2023-04-12T08:28:46.060Z,2.53
2023-04-12T08:31:13.792Z,5.00
2023-04-12T08:33:41.669Z,4.70
2023-04-12T08:36:10.305Z,3.33
2023-04-12T08:38:45.646Z,2.80
2023-04-12T08:41:15.155Z,2.80
2023-04-12T08:43:46.156Z,4.43
2023-04-12T08:46:16.386Z,4.10
2023-04-12T08:48:46.233Z,3.53
2023-04-12T08:51:15.592Z,2.67
2023-04-12T08:53:46.668Z,3.67
2023-04-12T08:56:15.770Z,2.83
2023-04-12T08:58:46.617Z,3.47
2023-04-12T09:01:15.697Z,5.20
2023-04-12T09:03:44.343Z,4.17
2023-04-12T09:06:12.910Z,2.77
2023-04-12T09:08:54.267Z,2.53
2023-04-12T09:11:27.111Z,2.27
2023-04-12T09:13:56.124Z,3.57
2023-04-12T09:16:37.783Z,2.63
2023-04-12T09:19:06.090Z,3.77
2023-04-12T09:21:34.609Z,2.40
2023-04-12T09:24:12.298Z,2.80
2023-04-12T09:26:41.745Z,3.00
2023-04-12T09:29:23.250Z,3.67
2023-04-12T09:31:57.091Z,4.40
2023-04-12T09:34:26.623Z,4.03
2023-04-12T09:36:55.617Z,2.90
2023-04-12T09:39:33.909Z,3.03
2023-04-12T09:42:18.067Z,3.93
2023-04-12T09:44:53.421Z,6.40
2023-04-12T09:47:21.458Z,3.47
2023-04-12T09:49:49.352Z,2.77
2023-04-12T09:52:17.040Z,2.77
2023-04-12T09:54:48.429Z,3.23
2023-04-12T09:57:18.707Z,3.10
2023-04-12T09:59:50.030Z,3.70
2023-04-12T10:02:19.042Z,4.43
2023-04-12T10:04:48.806Z,5.03
2023-04-12T10:07:16.772Z,4.07
2023-04-12T10:09:46.052Z,3.57
2023-04-12T10:12:13.668Z,3.27
2023-04-12T10:14:43.234Z,3.97
2023-04-12T10:17:12.222Z,2.43
2023-04-12T10:19:40.760Z,4.20
2023-04-12T10:22:08.453Z,1.73
2023-04-12T10:24:36.339Z,2.13
2023-04-12T10:27:05.531Z,2.73
2023-04-12T10:29:36.220Z,1.60
2023-04-12T10:32:19.392Z,2.73
2023-04-12T10:34:51.740Z,1.53
2023-04-12T10:37:19.386Z,3.13
2023-04-12T10:39:53.355Z,3.50
2023-04-12T10:42:24.728Z,2.50
2023-04-12T10:44:54.664Z,1.57
2023-04-12T10:48:01.559Z,1.83
2023-04-12T10:50:30.656Z,1.50
2023-04-12T10:53:26.870Z,1.60
2023-04-12T10:55:54.614Z,1.60
2023-04-12T10:59:03.337Z,3.73
2023-04-12T11:01:31.635Z,1.50
2023-04-12T11:04:14.247Z,1.77
2023-04-12T11:06:59.140Z,1.67
2023-04-12T11:09:28.445Z,1.77
2023-04-12T11:12:00.238Z,3.33
2023-04-12T11:14:35.779Z,1.13
2023-04-12T11:17:25.934Z,1.13
2023-04-12T11:19:58.461Z,1.93
2023-04-12T11:22:28.689Z,1.60
2023-04-12T11:24:57.861Z,1.87
2023-04-12T11:27:26.682Z,1.80
2023-04-12T11:29:57.364Z,1.43
2023-04-12T11:32:27.692Z,2.50
2023-04-12T11:34:56.948Z,0.80
2023-04-12T11:37:26.930Z,1.23
2023-04-12T11:39:57.337Z,1.80
2023-04-12T11:42:26.314Z,0.73
2023-04-12T11:44:59.763Z,1.47
2023-04-12T11:47:29.764Z,0.90
2023-04-12T11:49:59.311Z,2.57
2023-04-12T11:52:29.743Z,2.27
2023-04-12T11:54:58.843Z,0.90
2023-04-12T11:57:28.532Z,1.23
2023-04-12T11:59:58.562Z,1.13
2023-04-12T12:02:29.846Z,1.63
2023-04-12T12:04:58.487Z,1.40
2023-04-12T12:07:26.747Z,1.17
2023-04-12T12:09:54.994Z,2.70
2023-04-12T12:12:25.100Z,1.20
2023-04-12T12:14:52.784Z,0.90
2023-04-12T12:17:21.744Z,0.80
2023-04-12T12:19:49.397Z,1.57
2023-04-12T12:22:18.422Z,0.80
2023-04-12T12:24:48.041Z,0.70
2023-04-12T12:27:19.511Z,0.43
2023-04-12T12:29:50.782Z,1.13
2023-04-12T12:32:19.725Z,1.53
2023-04-12T12:34:56.442Z,1.83
2023-04-12T12:37:28.506Z,0.83
2023-04-12T12:40:17.820Z,0.50
2023-04-12T12:42:46.915Z,1.47
2023-04-12T12:45:15.314Z,0.57
2023-04-12T12:47:48.249Z,0.53
2023-04-12T12:50:18.361Z,1.27
2023-04-12T12:52:47.116Z,0.30
2023-04-12T12:55:15.173Z,1.73
2023-04-12T12:57:44.433Z,0.33
2023-04-12T13:00:16.649Z,0.27
2023-04-12T13:02:44.489Z,0.50
2023-04-12T13:05:13.204Z,0.30
2023-04-12T13:07:42.373Z,0.27
2023-04-12T13:10:10.329Z,0.93
2023-04-12T13:12:37.889Z,1.90
2023-04-12T13:15:20.979Z,0.60
2023-04-12T13:17:50.608Z,0.80
2023-04-12T13:20:18.276Z,2.10
2023-04-12T13:22:47.286Z,2.17
2023-04-12T13:25:14.920Z,0.20
2023-04-12T13:27:42.565Z,0.50
2023-04-12T13:30:11.003Z,0.40
2023-04-12T13:32:38.700Z,0.40
2023-04-12T13:35:07.067Z,0.30
2023-04-12T13:37:35.669Z,0.77
2023-04-12T13:40:05.138Z,0.77
2023-04-12T13:42:33.119Z,1.03
2023-04-12T13:45:01.434Z,1.17
2023-04-12T13:47:29.061Z,1.47
2023-04-12T13:49:56.582Z,0.30
2023-04-12T13:52:24.305Z,0.60
2023-04-12T13:54:51.911Z,0.47
2023-04-12T13:57:21.047Z,1.63
2023-04-12T13:59:48.659Z,0.50
2023-04-12T14:02:16.329Z,0.53
2023-04-12T14:04:51.743Z,0.43
2023-04-12T14:07:19.456Z,0.77
2023-04-12T14:09:48.446Z,0.40
2023-04-12T14:12:16.140Z,0.50
2023-04-12T14:14:45.141Z,0.30
2023-04-12T14:17:12.851Z,0.43
2023-04-12T14:19:40.815Z,1.90
2023-04-12T14:22:08.455Z,0.60
2023-04-12T14:24:36.751Z,1.27
2023-04-12T14:27:04.893Z,0.63
2023-04-12T14:29:32.814Z,2.90
2023-04-12T14:32:01.766Z,1.00
2023-04-12T14:34:30.985Z,0.57
2023-04-12T14:37:00.222Z,1.00
2023-04-12T14:39:27.938Z,0.97
2023-04-12T14:41:56.923Z,1.30
2023-04-12T14:44:26.235Z,2.83
2023-04-12T14:46:54.082Z,1.40
2023-04-12T14:49:23.142Z,0.63
2023-04-12T14:51:50.773Z,0.20
2023-04-12T14:54:18.390Z,0.97
2023-04-12T14:56:52.394Z,1.33
2023-04-12T14:59:21.625Z,0.57
2023-04-12T15:01:49.363Z,0.43
2023-04-12T15:04:17.248Z,0.57
2023-04-12T15:06:46.332Z,0.40
2023-04-12T15:09:15.656Z,0.50
2023-04-12T15:11:47.217Z,0.30
2023-04-12T15:14:18.056Z,0.43
2023-04-12T15:16:46.602Z,1.30
2023-04-12T15:19:19.876Z,0.63
2023-04-12T15:21:51.897Z,1.40
2023-04-12T15:24:19.743Z,0.93
2023-04-12T15:26:48.531Z,0.50
2023-04-12T15:29:16.604Z,0.53
2023-04-12T15:31:44.491Z,0.20
2023-04-12T15:34:13.289Z,0.40
2023-04-12T15:36:43.013Z,0.50
2023-04-12T15:39:12.641Z,0.30
2023-04-12T15:41:41.696Z,0.20
2023-04-12T15:44:11.856Z,0.20
2023-04-12T15:46:40.688Z,0.40
2023-04-12T15:49:09.064Z,0.73
2023-04-12T15:51:37.095Z,0.37
2023-04-12T15:54:06.541Z,0.93
2023-04-12T15:56:37.849Z,0.30
2023-04-12T15:59:05.853Z,1.33
2023-04-12T16:01:35.539Z,0.80
2023-04-12T16:04:03.483Z,0.40
2023-04-12T16:06:34.636Z,0.77
2023-04-12T16:09:04.400Z,0.47
2023-04-12T16:11:33.874Z,2.00
2023-04-12T16:14:02.848Z,0.67
2023-04-12T16:16:30.864Z,0.90
2023-04-12T16:19:00.017Z,0.43
2023-04-12T16:21:28.501Z,0.50
2023-04-12T16:23:56.039Z,0.50
2023-04-12T16:26:23.731Z,0.90
2023-04-12T16:28:53.255Z,1.50
2023-04-12T16:31:23.075Z,1.80
2023-04-12T16:33:51.142Z,0.30
2023-04-12T16:36:18.977Z,0.67
2023-04-12T16:38:46.710Z,0.50
2023-04-12T16:41:14.430Z,0.43
2023-04-12T16:43:44.773Z,0.70
2023-04-12T16:46:13.353Z,0.83
2023-04-12T16:48:42.712Z,0.67
2023-04-12T16:51:10.468Z,1.60
2023-04-12T16:53:38.102Z,0.43
2023-04-12T16:56:06.244Z,0.53
2023-04-12T16:58:33.978Z,0.47
2023-04-12T17:01:01.883Z,1.73
2023-04-12T17:03:30.160Z,3.23
2023-04-12T17:05:59.310Z,1.50
2023-04-12T17:08:26.884Z,0.63
2023-04-12T17:10:55.328Z,1.50
2023-04-12T17:13:23.137Z,0.73
2023-04-12T17:15:50.781Z,1.10
2023-04-12T17:18:18.395Z,1.40
2023-04-12T17:20:46.230Z,1.33
2023-04-12T17:23:16.578Z,0.70
2023-04-12T17:25:44.713Z,0.93
2023-04-12T17:28:13.002Z,1.37
2023-04-12T17:30:41.104Z,1.00
2023-04-12T17:33:09.432Z,1.40
2023-04-12T17:35:37.429Z,1.03
2023-04-12T17:38:05.081Z,0.70
2023-04-12T17:40:34.110Z,1.03
2023-04-12T17:43:01.847Z,1.03
2023-04-12T17:45:29.685Z,1.60
2023-04-12T17:47:57.299Z,4.03
2023-04-12T17:50:25.143Z,1.13
2023-04-12T17:52:52.797Z,1.20
2023-04-12T17:55:23.516Z,2.87
2023-04-12T17:57:53.166Z,1.60
2023-04-12T18:00:23.297Z,1.40
2023-04-12T18:02:51.379Z,1.47
2023-04-12T18:05:19.475Z,1.53
2023-04-12T18:07:47.098Z,2.53
2023-04-12T18:10:18.895Z,2.03
2023-04-12T18:12:48.129Z,3.27
2023-04-12T18:15:18.157Z,1.77
2023-04-12T18:17:45.926Z,2.73
2023-04-12T18:20:13.943Z,0.90
2023-04-12T18:22:42.206Z,2.00
2023-04-12T18:25:11.598Z,0.87
2023-04-12T18:27:39.256Z,2.50
2023-04-12T18:30:08.360Z,3.00
2023-04-12T18:32:37.391Z,0.97
2023-04-12T18:35:05.693Z,1.40
2023-04-12T18:37:33.351Z,2.67
2023-04-12T18:40:01.020Z,0.50
2023-04-12T18:42:28.638Z,1.57
2023-04-12T18:44:58.119Z,4.17
2023-04-12T18:47:26.972Z,0.63
2023-04-12T18:49:56.395Z,0.43
2023-04-12T18:52:23.995Z,1.03
2023-04-12T18:54:51.699Z,1.67
2023-04-12T18:57:19.330Z,1.90
2023-04-12T18:59:48.878Z,0.50
2023-04-12T19:02:18.113Z,0.50
2023-04-12T19:04:46.128Z,2.40
2023-04-12T19:07:15.433Z,1.07
2023-04-12T19:09:43.099Z,0.27
2023-04-12T19:12:10.647Z,0.50
2023-04-12T19:14:38.238Z,0.40
2023-04-12T19:17:05.800Z,0.70
2023-04-12T19:19:33.427Z,1.00
2023-04-12T19:22:01.077Z,0.87
2023-04-12T19:24:30.135Z,1.80
2023-04-12T19:26:57.743Z,0.50
2023-04-12T19:29:25.988Z,1.47
2023-04-12T19:31:53.816Z,1.60
2023-04-12T19:34:21.482Z,1.03
2023-04-12T19:36:49.550Z,1.13
2023-04-12T19:39:18.561Z,1.70
2023-04-12T19:41:49.023Z,2.70
2023-04-12T19:44:16.579Z,3.87
2023-04-12T19:46:44.246Z,1.80
2023-04-12T19:49:11.989Z,1.47
2023-04-12T19:51:39.801Z,1.17
2023-04-12T19:54:09.833Z,1.10
2023-04-12T19:56:37.667Z,1.10
2023-04-12T19:59:06.686Z,2.30
2023-04-12T20:01:43.036Z,4.27
2023-04-12T20:04:10.688Z,3.60
2023-04-12T20:06:38.691Z,1.40
2023-04-12T20:09:06.332Z,1.10
2023-04-12T20:11:33.943Z,4.00
2023-04-12T20:14:01.522Z,1.50
2023-04-12T20:16:31.250Z,0.60
2023-04-12T20:18:59.122Z,0.93
2023-04-12T20:21:27.721Z,0.70
2023-04-12T20:23:55.337Z,0.70
2023-04-12T20:26:23.012Z,0.40
2023-04-12T20:28:50.829Z,0.90
2023-04-12T20:31:19.489Z,1.50
2023-04-12T20:33:49.240Z,0.70
2023-04-12T20:36:18.018Z,0.93
2023-04-12T20:38:45.648Z,2.47
2023-04-12T20:41:13.289Z,0.67
2023-04-12T20:43:46.308Z,0.67
2023-04-12T20:46:16.802Z,0.60
2023-04-12T20:48:46.727Z,0.63
2023-04-12T20:51:16.316Z,0.80
2023-04-12T20:53:45.575Z,1.50
2023-04-12T20:56:13.208Z,2.87
2023-04-12T20:58:41.303Z,0.40
2023-04-12T21:01:14.410Z,1.83
2023-04-12T21:03:43.409Z,0.40
2023-04-12T21:06:11.628Z,1.40
2023-04-12T21:08:43.387Z,0.60
2023-04-12T21:11:11.249Z,1.60
2023-04-12T21:13:38.846Z,1.00
2023-04-12T21:16:07.933Z,0.67
2023-04-12T21:18:36.256Z,1.10
2023-04-12T21:21:03.915Z,0.70
2023-04-12T21:23:31.529Z,0.80
2023-04-12T21:26:02.412Z,1.03
2023-04-12T21:28:30.977Z,1.27
2023-04-12T21:30:59.107Z,0.83
2023-04-12T21:33:26.780Z,0.83
2023-04-12T21:35:55.064Z,1.10
2023-04-12T21:38:23.414Z,1.27
2023-04-12T21:40:51.258Z,0.80
2023-04-12T21:43:20.253Z,0.70
2023-04-12T21:45:47.910Z,0.60
2023-04-12T21:48:15.605Z,0.70
2023-04-12T21:50:43.212Z,0.90
2023-04-12T21:53:10.895Z,1.10
2023-04-12T21:55:39.019Z,1.63
2023-04-12T21:58:07.141Z,0.60
2023-04-12T22:00:37.161Z,0.80
2023-04-12T22:03:05.301Z,1.30
2023-04-12T22:05:33.280Z,1.23
2023-04-12T22:08:00.940Z,1.97
2023-04-12T22:10:29.221Z,2.00
2023-04-12T22:12:56.899Z,2.20
2023-04-12T22:15:26.096Z,1.77
2023-04-12T22:17:55.237Z,0.80
2023-04-12T22:20:22.915Z,1.90
2023-04-12T22:22:50.531Z,2.10
2023-04-12T22:25:18.434Z,1.40
2023-04-12T22:27:46.420Z,1.63
2023-04-12T22:30:14.732Z,2.50
2023-04-12T22:32:42.511Z,2.00
2023-04-12T22:35:12.166Z,1.10
2023-04-12T22:37:43.885Z,0.80
2023-04-12T22:40:13.437Z,1.23
2023-04-12T22:42:46.096Z,0.90
2023-04-12T22:45:14.710Z,1.37
2023-04-12T22:47:42.972Z,0.80
2023-04-12T22:50:16.415Z,0.97
2023-04-12T22:52:44.932Z,0.80
2023-04-12T22:55:13.870Z,0.77
2023-04-12T22:57:42.221Z,3.50
2023-04-12T23:00:15.774Z,0.70
2023-04-12T23:02:46.550Z,1.67
2023-04-12T23:05:17.627Z,1.27
2023-04-12T23:07:46.025Z,0.90
2023-04-12T23:10:14.366Z,1.33
2023-04-12T23:12:42.347Z,1.57
2023-04-12T23:15:12.592Z,1.20
2023-04-12T23:17:40.597Z,2.00
2023-04-12T23:20:13.119Z,1.23
2023-04-12T23:22:57.392Z,1.57
2023-04-12T23:25:29.189Z,2.57
2023-04-12T23:27:57.484Z,0.60
2023-04-12T23:30:29.807Z,1.00
2023-04-12T23:32:58.422Z,2.77
2023-04-12T23:35:26.184Z,0.87
2023-04-12T23:37:56.093Z,0.80
2023-04-12T23:40:24.333Z,0.90
2023-04-12T23:42:52.135Z,1.17
2023-04-12T23:45:19.981Z,1.63
2023-04-12T23:47:47.645Z,1.47
2023-04-12T23:50:15.421Z,2.73
2023-04-12T23:52:43.066Z,2.50
2023-04-12T23:55:12.054Z,3.27
2023-04-12T23:57:39.653Z,4.37
